Middleville, MI

9:26 PM EDT on September 25, 2016 (GMT -0400)
Baird Family Weather | | Change Station

Elev 728 ft 42.75 °N, 85.43 °W | Updated 8 days ago

Thunderstorm
Thunderstorm
64 °F
Feels Like 64 °F
N
13
Wind Variable Wind from South
Gusts 23 mph

Today
High -- | Low -- °F
--% Chance of Precip.
Yesterday
High -- | Low -- °F
Precip. -- in
Pressure 29.96 in
Visibility 10.0 miles
Clouds Few 16000 ft
Scattered Clouds 24000 ft
Dew Point 56 °F
Humidity 75%
Rainfall in
Snow Depth Not available.
7:32 AM 7:32 PM
Waning Crescent, 23% visible
METAR KGRR 260053Z 13011KT 10SM FEW160 SCT240 20/12 A2996 RMK AO2 SLP144 T02000117
Pressure 29.96 in
Visibility 10.0 miles
Clouds Few 16000 ft
Scattered Clouds 24000 ft
Dew Point 56 °F
Humidity 75%
Rainfall in
Snow Depth Not available.
7:32 AM 7:32 PM
Waning Crescent, 23% visible
METAR KGRR 260053Z 13011KT 10SM FEW160 SCT240 20/12 A2996 RMK AO2 SLP144 T02000117

10-Day Weather Forecast

Almanac

Astronomy

Sep. 25, 2016 Rise Set
Actual Time
Civil Twilight
Nautical Twilight
Astronomical Twilight
Moon
Length of Visible Light
Length of Day
Tomorrow will be .
, % of the Moon is Illuminated

Today's Extremes

State Highs State Lows

Community

WunderPhotos

Upload Photos

1,941,801 photos uploaded!

WunderBlog® & News

Nearby

Air Quality

  Air Quality AQ Index Pollutant
Not available.

Snow Depth

Station Depth Elevation

Earthquake Activity

City Distance Mag. Time & Date
Minimum magnitude displayed is 2.5.

Coastal Water Temperatures

Place Temperature

Stations

Nearby Weather Stations

Station Location Temp. Windchill Dew Point Humidity Wind Precip. Elev Updated Type
                   

Watches & Warnings

There are currently no watches in effect.